Terminal Aerodrome Forecast
Issued by NWS Corpus Christi, TX

Current Version | Previous Version | Text Only | Print | Product List | Glossary Off
Versions: 1 2 3 4 5 6 7 8 9 10 11 12 13

451
FTUS44 KCRP 241724
TAFVCT
TAF
KVCT 241724Z 2418/2518 VRB05KT P6SM SCT045
     FM242100 15014KT P6SM SCT050
     FM250200 16007KT P6SM FEW018 SCT250
     FM251000 VRB03KT P6SM SCT020
      TEMPO 2510/2514 4SM BR BKN020=

USA.gov is the U.S. government's official web portal to all federal, state and local government web resources and services.